sensor_id;sensor_type;location;lat;lon;timestamp;temperature;humidity
7384;DHT22;3733;47.994;8.820;2022-11-23T00:00:36;2.30;99.90
7384;DHT22;3733;47.994;8.820;2022-11-23T00:03:03;2.30;99.90
7384;DHT22;3733;47.994;8.820;2022-11-23T00:05:29;2.30;99.90
7384;DHT22;3733;47.994;8.820;2022-11-23T00:07:55;2.30;99.90
7384;DHT22;3733;47.994;8.820;2022-11-23T00:10:21;2.30;99.90
7384;DHT22;3733;47.994;8.820;2022-11-23T00:12:47;2.30;99.90
7384;DHT22;3733;47.994;8.820;2022-11-23T00:15:14;2.30;99.90
7384;DHT22;3733;47.994;8.820;2022-11-23T00:17:40;2.30;99.90
7384;DHT22;3733;47.994;8.820;2022-11-23T00:20:07;2.30;99.90
7384;DHT22;3733;47.994;8.820;2022-11-23T00:22:33;2.30;99.90
7384;DHT22;3733;47.994;8.820;2022-11-23T00:24:59;2.40;99.90
7384;DHT22;3733;47.994;8.820;2022-11-23T00:27:24;2.40;99.90
7384;DHT22;3733;47.994;8.820;2022-11-23T00:29:50;2.40;99.90
7384;DHT22;3733;47.994;8.820;2022-11-23T00:32:16;2.30;99.90
7384;DHT22;3733;47.994;8.820;2022-11-23T00:34:41;2.30;99.90
7384;DHT22;3733;47.994;8.820;2022-11-23T00:37:07;2.30;99.90
7384;DHT22;3733;47.994;8.820;2022-11-23T00:39:32;2.30;99.90
7384;DHT22;3733;47.994;8.820;2022-11-23T00:41:58;2.30;99.90
7384;DHT22;3733;47.994;8.820;2022-11-23T00:44:24;2.20;99.90
7384;DHT22;3733;47.994;8.820;2022-11-23T00:46:49;2.30;99.90
7384;DHT22;3733;47.994;8.820;2022-11-23T00:49:15;2.30;99.90
7384;DHT22;3733;47.994;8.820;2022-11-23T00:51:41;2.30;99.90
7384;DHT22;3733;47.994;8.820;2022-11-23T00:54:06;2.30;99.90
7384;DHT22;3733;47.994;8.820;2022-11-23T00:56:33;2.20;99.90
7384;DHT22;3733;47.994;8.820;2022-11-23T00:59:01;2.20;99.90
7384;DHT22;3733;47.994;8.820;2022-11-23T01:01:29;2.10;99.90
7384;DHT22;3733;47.994;8.820;2022-11-23T01:03:56;2.10;99.90
7384;DHT22;3733;47.994;8.820;2022-11-23T01:06:24;2.00;99.90
7384;DHT22;3733;47.994;8.820;2022-11-23T01:08:58;1.90;99.90
7384;DHT22;3733;47.994;8.820;2022-11-23T01:11:27;1.90;99.90
7384;DHT22;3733;47.994;8.820;2022-11-23T01:13:53;1.90;99.90
7384;DHT22;3733;47.994;8.820;2022-11-23T01:16:22;1.80;99.90
7384;DHT22;3733;47.994;8.820;2022-11-23T01:21:19;1.70;99.90
7384;DHT22;3733;47.994;8.820;2022-11-23T01:23:45;1.70;99.90
7384;DHT22;3733;47.994;8.820;2022-11-23T01:26:10;1.70;99.90
7384;DHT22;3733;47.994;8.820;2022-11-23T01:28:38;1.70;99.90
7384;DHT22;3733;47.994;8.820;2022-11-23T01:31:09;1.70;99.90
7384;DHT22;3733;47.994;8.820;2022-11-23T01:33:36;1.60;99.90
7384;DHT22;3733;47.994;8.820;2022-11-23T01:36:12;1.60;99.90
7384;DHT22;3733;47.994;8.820;2022-11-23T01:38:39;1.50;99.90
7384;DHT22;3733;47.994;8.820;2022-11-23T01:41:07;1.50;99.90
7384;DHT22;3733;47.994;8.820;2022-11-23T01:43:33;1.50;99.90
7384;DHT22;3733;47.994;8.820;2022-11-23T01:45:59;1.40;99.90
7384;DHT22;3733;47.994;8.820;2022-11-23T01:51:16;1.30;99.90
7384;DHT22;3733;47.994;8.820;2022-11-23T01:53:43;1.30;99.90
7384;DHT22;3733;47.994;8.820;2022-11-23T01:56:14;1.20;99.90
7384;DHT22;3733;47.994;8.820;2022-11-23T01:58:43;1.20;99.90
7384;DHT22;3733;47.994;8.820;2022-11-23T02:01:11;1.20;99.90
7384;DHT22;3733;47.994;8.820;2022-11-23T02:03:37;1.20;99.90
7384;DHT22;3733;47.994;8.820;2022-11-23T02:06:08;1.10;99.90
7384;DHT22;3733;47.994;8.820;2022-11-23T02:08:35;1.10;99.90
7384;DHT22;3733;47.994;8.820;2022-11-23T02:11:02;1.10;99.90
7384;DHT22;3733;47.994;8.820;2022-11-23T02:13:28;1.10;99.90
7384;DHT22;3733;47.994;8.820;2022-11-23T02:15:55;1.10;99.90
7384;DHT22;3733;47.994;8.820;2022-11-23T02:18:28;1.10;99.90
7384;DHT22;3733;47.994;8.820;2022-11-23T02:20:56;1.10;99.90
7384;DHT22;3733;47.994;8.820;2022-11-23T02:26:39;1.10;99.90
7384;DHT22;3733;47.994;8.820;2022-11-23T02:29:22;1.10;99.90
7384;DHT22;3733;47.994;8.820;2022-11-23T02:31:48;1.10;99.90
7384;DHT22;3733;47.994;8.820;2022-11-23T02:34:15;1.10;99.90
7384;DHT22;3733;47.994;8.820;2022-11-23T02:39:32;1.00;99.90
7384;DHT22;3733;47.994;8.820;2022-11-23T02:41:59;1.00;99.90
7384;DHT22;3733;47.994;8.820;2022-11-23T02:47:03;1.00;99.90
7384;DHT22;3733;47.994;8.820;2022-11-23T02:49:29;1.00;99.90
7384;DHT22;3733;47.994;8.820;2022-11-23T02:51:55;1.00;99.90
7384;DHT22;3733;47.994;8.820;2022-11-23T02:54:20;1.00;99.90
7384;DHT22;3733;47.994;8.820;2022-11-23T02:56:46;1.10;99.90
7384;DHT22;3733;47.994;8.820;2022-11-23T02:59:14;1.10;99.90
7384;DHT22;3733;47.994;8.820;2022-11-23T03:01:40;1.10;99.90
7384;DHT22;3733;47.994;8.820;2022-11-23T03:04:06;1.10;99.90
7384;DHT22;3733;47.994;8.820;2022-11-23T03:06:32;1.10;99.90
7384;DHT22;3733;47.994;8.820;2022-11-23T03:08:58;1.10;99.90
7384;DHT22;3733;47.994;8.820;2022-11-23T03:11:23;1.20;99.90
7384;DHT22;3733;47.994;8.820;2022-11-23T03:13:49;1.20;99.90
7384;DHT22;3733;47.994;8.820;2022-11-23T03:16:15;1.20;99.90
7384;DHT22;3733;47.994;8.820;2022-11-23T03:18:41;1.20;99.90
7384;DHT22;3733;47.994;8.820;2022-11-23T03:21:07;1.20;99.90
7384;DHT22;3733;47.994;8.820;2022-11-23T03:23:36;1.20;99.90
7384;DHT22;3733;47.994;8.820;2022-11-23T03:26:02;1.30;99.90
7384;DHT22;3733;47.994;8.820;2022-11-23T03:28:27;1.30;99.90
7384;DHT22;3733;47.994;8.820;2022-11-23T03:30:53;1.30;99.90
7384;DHT22;3733;47.994;8.820;2022-11-23T03:33:19;1.30;99.90
7384;DHT22;3733;47.994;8.820;2022-11-23T03:35:46;1.30;99.90
7384;DHT22;3733;47.994;8.820;2022-11-23T03:38:11;1.20;99.90
7384;DHT22;3733;47.994;8.820;2022-11-23T03:40:37;1.20;99.90
7384;DHT22;3733;47.994;8.820;2022-11-23T03:43:03;1.20;99.90
7384;DHT22;3733;47.994;8.820;2022-11-23T03:45:29;1.20;99.90
7384;DHT22;3733;47.994;8.820;2022-11-23T03:47:54;1.20;99.90
7384;DHT22;3733;47.994;8.820;2022-11-23T03:50:20;1.20;99.90
7384;DHT22;3733;47.994;8.820;2022-11-23T03:52:48;1.20;99.90
7384;DHT22;3733;47.994;8.820;2022-11-23T03:55:14;1.20;99.90
7384;DHT22;3733;47.994;8.820;2022-11-23T03:57:39;1.30;99.90
7384;DHT22;3733;47.994;8.820;2022-11-23T04:00:06;1.30;99.90
7384;DHT22;3733;47.994;8.820;2022-11-23T04:02:32;1.30;99.90
7384;DHT22;3733;47.994;8.820;2022-11-23T04:04:58;1.30;99.90
7384;DHT22;3733;47.994;8.820;2022-11-23T04:07:24;1.30;99.90
7384;DHT22;3733;47.994;8.820;2022-11-23T04:09:49;1.30;99.90
7384;DHT22;3733;47.994;8.820;2022-11-23T04:12:15;1.30;99.90
7384;DHT22;3733;47.994;8.820;2022-11-23T04:14:40;1.30;99.90
7384;DHT22;3733;47.994;8.820;2022-11-23T04:17:08;1.30;99.90
7384;DHT22;3733;47.994;8.820;2022-11-23T04:19:34;1.30;99.90
7384;DHT22;3733;47.994;8.820;2022-11-23T04:21:59;1.30;99.90
7384;DHT22;3733;47.994;8.820;2022-11-23T04:24:25;1.30;99.90
7384;DHT22;3733;47.994;8.820;2022-11-23T04:26:50;1.30;99.90
7384;DHT22;3733;47.994;8.820;2022-11-23T04:29:16;1.30;99.90
7384;DHT22;3733;47.994;8.820;2022-11-23T04:31:42;1.30;99.90
7384;DHT22;3733;47.994;8.820;2022-11-23T04:34:07;1.30;99.90
7384;DHT22;3733;47.994;8.820;2022-11-23T04:36:33;1.30;99.90
7384;DHT22;3733;47.994;8.820;2022-11-23T04:39:02;1.40;99.90
7384;DHT22;3733;47.994;8.820;2022-11-23T04:41:28;1.40;99.90
7384;DHT22;3733;47.994;8.820;2022-11-23T04:43:54;1.50;99.90
7384;DHT22;3733;47.994;8.820;2022-11-23T04:46:20;1.50;99.90
7384;DHT22;3733;47.994;8.820;2022-11-23T04:48:46;1.50;99.90
7384;DHT22;3733;47.994;8.820;2022-11-23T04:51:12;1.50;99.90
7384;DHT22;3733;47.994;8.820;2022-11-23T04:53:38;1.50;99.90
7384;DHT22;3733;47.994;8.820;2022-11-23T04:56:04;1.50;99.90
7384;DHT22;3733;47.994;8.820;2022-11-23T04:58:30;1.50;99.90
7384;DHT22;3733;47.994;8.820;2022-11-23T05:00:57;1.50;99.90
7384;DHT22;3733;47.994;8.820;2022-11-23T05:03:23;1.50;99.90
7384;DHT22;3733;47.994;8.820;2022-11-23T05:05:49;1.50;99.90
7384;DHT22;3733;47.994;8.820;2022-11-23T05:08:14;1.50;99.90
7384;DHT22;3733;47.994;8.820;2022-11-23T05:10:40;1.40;99.90
7384;DHT22;3733;47.994;8.820;2022-11-23T05:13:05;1.40;99.90
7384;DHT22;3733;47.994;8.820;2022-11-23T05:15:31;1.40;99.90
7384;DHT22;3733;47.994;8.820;2022-11-23T05:18:04;1.40;99.90
7384;DHT22;3733;47.994;8.820;2022-11-23T05:20:33;1.40;99.90
7384;DHT22;3733;47.994;8.820;2022-11-23T05:22:59;1.40;99.90
7384;DHT22;3733;47.994;8.820;2022-11-23T05:25:25;1.40;99.90
7384;DHT22;3733;47.994;8.820;2022-11-23T05:27:51;1.40;99.90
7384;DHT22;3733;47.994;8.820;2022-11-23T05:30:17;1.40;99.90
7384;DHT22;3733;47.994;8.820;2022-11-23T05:32:43;1.40;99.90
7384;DHT22;3733;47.994;8.820;2022-11-23T05:35:09;1.40;99.90
7384;DHT22;3733;47.994;8.820;2022-11-23T05:37:35;1.40;99.90
7384;DHT22;3733;47.994;8.820;2022-11-23T05:40:01;1.40;99.90
7384;DHT22;3733;47.994;8.820;2022-11-23T05:42:26;1.40;99.90
7384;DHT22;3733;47.994;8.820;2022-11-23T05:44:52;1.40;99.90
7384;DHT22;3733;47.994;8.820;2022-11-23T05:47:18;1.40;99.90
7384;DHT22;3733;47.994;8.820;2022-11-23T05:49:43;1.40;99.90
7384;DHT22;3733;47.994;8.820;2022-11-23T05:52:09;1.40;99.90
7384;DHT22;3733;47.994;8.820;2022-11-23T05:54:40;1.50;99.90
7384;DHT22;3733;47.994;8.820;2022-11-23T05:57:05;1.50;99.90
7384;DHT22;3733;47.994;8.820;2022-11-23T05:59:31;1.50;99.90
7384;DHT22;3733;47.994;8.820;2022-11-23T06:01:56;1.60;99.90
7384;DHT22;3733;47.994;8.820;2022-11-23T06:04:25;1.60;99.90
7384;DHT22;3733;47.994;8.820;2022-11-23T06:06:50;1.60;99.90
7384;DHT22;3733;47.994;8.820;2022-11-23T06:09:19;1.60;99.90
7384;DHT22;3733;47.994;8.820;2022-11-23T06:11:49;1.60;99.90
7384;DHT22;3733;47.994;8.820;2022-11-23T06:14:15;1.70;99.90
7384;DHT22;3733;47.994;8.820;2022-11-23T06:16:41;1.70;99.90
7384;DHT22;3733;47.994;8.820;2022-11-23T06:19:07;1.70;99.90
7384;DHT22;3733;47.994;8.820;2022-11-23T06:21:32;1.70;99.90
7384;DHT22;3733;47.994;8.820;2022-11-23T06:23:58;1.70;99.90
7384;DHT22;3733;47.994;8.820;2022-11-23T06:26:24;1.70;99.90
7384;DHT22;3733;47.994;8.820;2022-11-23T06:28:50;1.70;99.90
7384;DHT22;3733;47.994;8.820;2022-11-23T06:31:16;1.80;99.90
7384;DHT22;3733;47.994;8.820;2022-11-23T06:33:41;1.80;99.90
7384;DHT22;3733;47.994;8.820;2022-11-23T06:36:09;1.80;99.90
7384;DHT22;3733;47.994;8.820;2022-11-23T06:38:38;1.80;99.90
7384;DHT22;3733;47.994;8.820;2022-11-23T06:41:04;1.80;99.90
7384;DHT22;3733;47.994;8.820;2022-11-23T06:43:29;1.80;99.90
7384;DHT22;3733;47.994;8.820;2022-11-23T06:45:55;1.90;99.90
7384;DHT22;3733;47.994;8.820;2022-11-23T06:48:22;1.90;99.90
7384;DHT22;3733;47.994;8.820;2022-11-23T06:50:48;1.90;99.90
7384;DHT22;3733;47.994;8.820;2022-11-23T06:53:13;1.90;99.90
7384;DHT22;3733;47.994;8.820;2022-11-23T06:55:39;1.90;99.90
7384;DHT22;3733;47.994;8.820;2022-11-23T06:58:06;1.90;99.90
7384;DHT22;3733;47.994;8.820;2022-11-23T07:00:32;1.90;99.90
7384;DHT22;3733;47.994;8.820;2022-11-23T07:02:58;1.90;99.90
7384;DHT22;3733;47.994;8.820;2022-11-23T07:05:25;1.90;99.90
7384;DHT22;3733;47.994;8.820;2022-11-23T07:07:51;1.90;99.90
7384;DHT22;3733;47.994;8.820;2022-11-23T07:10:17;1.90;99.90
7384;DHT22;3733;47.994;8.820;2022-11-23T07:12:43;1.90;99.90
7384;DHT22;3733;47.994;8.820;2022-11-23T07:15:09;1.90;99.90
7384;DHT22;3733;47.994;8.820;2022-11-23T07:17:38;1.90;99.90
7384;DHT22;3733;47.994;8.820;2022-11-23T07:20:07;1.90;99.90
7384;DHT22;3733;47.994;8.820;2022-11-23T07:22:33;1.90;99.90
7384;DHT22;3733;47.994;8.820;2022-11-23T07:24:59;1.90;99.90
7384;DHT22;3733;47.994;8.820;2022-11-23T07:27:27;1.90;99.90
7384;DHT22;3733;47.994;8.820;2022-11-23T07:29:53;1.90;99.90
7384;DHT22;3733;47.994;8.820;2022-11-23T07:32:19;2.00;99.90
7384;DHT22;3733;47.994;8.820;2022-11-23T07:34:44;2.00;99.90
7384;DHT22;3733;47.994;8.820;2022-11-23T07:37:10;2.00;99.90
7384;DHT22;3733;47.994;8.820;2022-11-23T07:39:35;2.00;99.90
7384;DHT22;3733;47.994;8.820;2022-11-23T07:42:01;2.00;99.90
7384;DHT22;3733;47.994;8.820;2022-11-23T07:44:26;2.00;99.90
7384;DHT22;3733;47.994;8.820;2022-11-23T07:46:52;2.10;99.90
7384;DHT22;3733;47.994;8.820;2022-11-23T07:49:18;2.10;99.90
7384;DHT22;3733;47.994;8.820;2022-11-23T07:51:44;2.10;99.90
7384;DHT22;3733;47.994;8.820;2022-11-23T07:54:09;2.20;99.90
7384;DHT22;3733;47.994;8.820;2022-11-23T07:56:35;2.20;99.90
7384;DHT22;3733;47.994;8.820;2022-11-23T07:59:01;2.20;99.90
7384;DHT22;3733;47.994;8.820;2022-11-23T08:01:26;2.20;99.90
7384;DHT22;3733;47.994;8.820;2022-11-23T08:03:52;2.30;99.90
7384;DHT22;3733;47.994;8.820;2022-11-23T08:06:17;2.40;99.90
7384;DHT22;3733;47.994;8.820;2022-11-23T08:08:43;2.40;99.90
7384;DHT22;3733;47.994;8.820;2022-11-23T08:11:09;2.40;99.90
7384;DHT22;3733;47.994;8.820;2022-11-23T08:13:39;2.50;99.90
7384;DHT22;3733;47.994;8.820;2022-11-23T08:16:05;2.50;99.90
7384;DHT22;3733;47.994;8.820;2022-11-23T08:18:30;2.60;99.90
7384;DHT22;3733;47.994;8.820;2022-11-23T08:20:58;2.60;99.90
7384;DHT22;3733;47.994;8.820;2022-11-23T08:23:25;2.70;99.90
7384;DHT22;3733;47.994;8.820;2022-11-23T08:25:50;2.70;99.90
7384;DHT22;3733;47.994;8.820;2022-11-23T08:28:16;2.80;99.90
7384;DHT22;3733;47.994;8.820;2022-11-23T08:30:42;2.90;99.90
7384;DHT22;3733;47.994;8.820;2022-11-23T08:33:08;2.90;99.90
7384;DHT22;3733;47.994;8.820;2022-11-23T08:35:38;3.00;99.90
7384;DHT22;3733;47.994;8.820;2022-11-23T08:38:04;3.10;99.90
7384;DHT22;3733;47.994;8.820;2022-11-23T08:40:31;3.30;99.90
7384;DHT22;3733;47.994;8.820;2022-11-23T08:42:57;3.40;99.90
7384;DHT22;3733;47.994;8.820;2022-11-23T08:45:22;3.50;99.90
7384;DHT22;3733;47.994;8.820;2022-11-23T08:47:48;3.60;99.90
7384;DHT22;3733;47.994;8.820;2022-11-23T08:50:15;3.70;99.90
7384;DHT22;3733;47.994;8.820;2022-11-23T08:52:44;3.70;99.90
7384;DHT22;3733;47.994;8.820;2022-11-23T08:55:09;3.80;99.90
7384;DHT22;3733;47.994;8.820;2022-11-23T08:57:35;3.90;99.90
7384;DHT22;3733;47.994;8.820;2022-11-23T09:00:02;4.00;99.90
7384;DHT22;3733;47.994;8.820;2022-11-23T09:02:28;4.00;99.90
7384;DHT22;3733;47.994;8.820;2022-11-23T09:04:54;4.10;99.90
7384;DHT22;3733;47.994;8.820;2022-11-23T09:07:19;4.10;99.90
7384;DHT22;3733;47.994;8.820;2022-11-23T09:09:45;4.20;99.90
7384;DHT22;3733;47.994;8.820;2022-11-23T09:12:11;4.20;99.90
7384;DHT22;3733;47.994;8.820;2022-11-23T09:14:37;4.20;99.90
7384;DHT22;3733;47.994;8.820;2022-11-23T09:17:03;4.20;99.90
7384;DHT22;3733;47.994;8.820;2022-11-23T09:19:29;4.30;99.90
7384;DHT22;3733;47.994;8.820;2022-11-23T09:21:54;4.30;99.90
7384;DHT22;3733;47.994;8.820;2022-11-23T09:24:20;4.40;99.90
7384;DHT22;3733;47.994;8.820;2022-11-23T09:26:50;4.40;99.90
7384;DHT22;3733;47.994;8.820;2022-11-23T09:29:15;4.40;99.90
7384;DHT22;3733;47.994;8.820;2022-11-23T09:31:41;4.40;99.90
7384;DHT22;3733;47.994;8.820;2022-11-23T09:34:06;4.40;99.90
7384;DHT22;3733;47.994;8.820;2022-11-23T09:36:34;4.60;99.90
7384;DHT22;3733;47.994;8.820;2022-11-23T09:39:00;4.70;99.90
7384;DHT22;3733;47.994;8.820;2022-11-23T09:52:32;4.90;99.90
7384;DHT22;3733;47.994;8.820;2022-11-23T09:57:57;5.10;99.90
7384;DHT22;3733;47.994;8.820;2022-11-23T10:00:34;5.10;99.90
7384;DHT22;3733;47.994;8.820;2022-11-23T10:03:01;5.00;99.90
7384;DHT22;3733;47.994;8.820;2022-11-23T10:05:31;4.90;99.90
7384;DHT22;3733;47.994;8.820;2022-11-23T10:10:44;4.80;99.90
7384;DHT22;3733;47.994;8.820;2022-11-23T10:13:37;4.70;99.90
7384;DHT22;3733;47.994;8.820;2022-11-23T10:19:31;4.70;99.90
7384;DHT22;3733;47.994;8.820;2022-11-23T10:24:45;4.90;99.90
7384;DHT22;3733;47.994;8.820;2022-11-23T10:27:20;5.00;99.90
7384;DHT22;3733;47.994;8.820;2022-11-23T10:29:46;5.20;99.90
7384;DHT22;3733;47.994;8.820;2022-11-23T10:32:37;5.50;99.90
7384;DHT22;3733;47.994;8.820;2022-11-23T10:35:17;5.80;99.90
7384;DHT22;3733;47.994;8.820;2022-11-23T10:37:47;6.00;99.90
7384;DHT22;3733;47.994;8.820;2022-11-23T10:40:20;6.30;99.90
7384;DHT22;3733;47.994;8.820;2022-11-23T10:42:53;6.50;99.90
7384;DHT22;3733;47.994;8.820;2022-11-23T10:45:22;6.80;99.90
7384;DHT22;3733;47.994;8.820;2022-11-23T10:47:53;7.00;99.90
7384;DHT22;3733;47.994;8.820;2022-11-23T10:50:32;7.10;99.90
7384;DHT22;3733;47.994;8.820;2022-11-23T10:56:03;7.10;99.90
7384;DHT22;3733;47.994;8.820;2022-11-23T10:58:41;7.20;99.90
7384;DHT22;3733;47.994;8.820;2022-11-23T11:01:18;7.40;99.90
7384;DHT22;3733;47.994;8.820;2022-11-23T11:03:44;7.50;99.80
7384;DHT22;3733;47.994;8.820;2022-11-23T11:06:10;7.60;98.80
7384;DHT22;3733;47.994;8.820;2022-11-23T11:11:29;7.90;98.20
7384;DHT22;3733;47.994;8.820;2022-11-23T11:14:17;8.10;96.90
7384;DHT22;3733;47.994;8.820;2022-11-23T11:16:48;8.30;96.00
7384;DHT22;3733;47.994;8.820;2022-11-23T11:19:31;8.50;94.20
7384;DHT22;3733;47.994;8.820;2022-11-23T11:21:58;8.60;92.10
7384;DHT22;3733;47.994;8.820;2022-11-23T11:24:30;8.60;87.90
7384;DHT22;3733;47.994;8.820;2022-11-23T11:27:00;8.60;84.50
7384;DHT22;3733;47.994;8.820;2022-11-23T11:31:56;8.70;83.80
7384;DHT22;3733;47.994;8.820;2022-11-23T11:37:36;8.70;86.70
7384;DHT22;3733;47.994;8.820;2022-11-23T11:42:47;8.70;76.40
7384;DHT22;3733;47.994;8.820;2022-11-23T11:45:29;8.60;79.00
7384;DHT22;3733;47.994;8.820;2022-11-23T11:50:29;8.60;78.50
7384;DHT22;3733;47.994;8.820;2022-11-23T11:53:02;8.40;80.80
7384;DHT22;3733;47.994;8.820;2022-11-23T11:58:17;8.10;85.20
7384;DHT22;3733;47.994;8.820;2022-11-23T12:00:45;8.00;89.30
7384;DHT22;3733;47.994;8.820;2022-11-23T12:03:39;7.90;89.50
7384;DHT22;3733;47.994;8.820;2022-11-23T12:09:18;7.70;90.90
7384;DHT22;3733;47.994;8.820;2022-11-23T12:11:47;7.60;92.20
7384;DHT22;3733;47.994;8.820;2022-11-23T12:14:14;7.50;93.70
7384;DHT22;3733;47.994;8.820;2022-11-23T12:19:50;7.40;94.70
7384;DHT22;3733;47.994;8.820;2022-11-23T12:39:21;7.20;95.70
7384;DHT22;3733;47.994;8.820;2022-11-23T12:41:49;7.20;95.10
7384;DHT22;3733;47.994;8.820;2022-11-23T12:47:57;7.20;92.10
7384;DHT22;3733;47.994;8.820;2022-11-23T12:55:38;7.20;91.00
7384;DHT22;3733;47.994;8.820;2022-11-23T13:00:50;7.30;90.60
7384;DHT22;3733;47.994;8.820;2022-11-23T13:22:31;7.90;86.30
7384;DHT22;3733;47.994;8.820;2022-11-23T13:27:28;8.20;79.80
7384;DHT22;3733;47.994;8.820;2022-11-23T13:29:56;8.40;71.70
7384;DHT22;3733;47.994;8.820;2022-11-23T13:40:24;8.80;66.90
7384;DHT22;3733;47.994;8.820;2022-11-23T13:42:58;8.80;64.90
7384;DHT22;3733;47.994;8.820;2022-11-23T13:45:28;8.70;65.60
7384;DHT22;3733;47.994;8.820;2022-11-23T13:50:35;8.40;67.70
7384;DHT22;3733;47.994;8.820;2022-11-23T13:53:02;8.30;68.60
7384;DHT22;3733;47.994;8.820;2022-11-23T13:55:36;8.10;71.40
7384;DHT22;3733;47.994;8.820;2022-11-23T14:00:56;7.80;76.80
7384;DHT22;3733;47.994;8.820;2022-11-23T14:06:32;7.60;82.40
7384;DHT22;3733;47.994;8.820;2022-11-23T14:14:41;7.50;85.70
7384;DHT22;3733;47.994;8.820;2022-11-23T14:25:57;7.40;91.20
7384;DHT22;3733;47.994;8.820;2022-11-23T14:31:34;7.30;93.10
7384;DHT22;3733;47.994;8.820;2022-11-23T14:36:48;7.10;94.80
7384;DHT22;3733;47.994;8.820;2022-11-23T14:42:13;7.00;96.50
7384;DHT22;3733;47.994;8.820;2022-11-23T14:44:40;7.00;97.50
7384;DHT22;3733;47.994;8.820;2022-11-23T14:47:08;6.90;98.00
7384;DHT22;3733;47.994;8.820;2022-11-23T14:49:34;6.80;99.00
7384;DHT22;3733;47.994;8.820;2022-11-23T14:52:01;6.80;99.90
7384;DHT22;3733;47.994;8.820;2022-11-23T14:54:28;6.80;99.90
7384;DHT22;3733;47.994;8.820;2022-11-23T14:57:00;6.80;99.90
7384;DHT22;3733;47.994;8.820;2022-11-23T14:59:36;6.70;99.90
7384;DHT22;3733;47.994;8.820;2022-11-23T15:02:30;6.70;99.90
7384;DHT22;3733;47.994;8.820;2022-11-23T15:05:20;6.70;99.90
7384;DHT22;3733;47.994;8.820;2022-11-23T15:08:18;6.70;99.90
7384;DHT22;3733;47.994;8.820;2022-11-23T15:11:10;6.60;99.90
7384;DHT22;3733;47.994;8.820;2022-11-23T15:13:46;6.60;99.90
7384;DHT22;3733;47.994;8.820;2022-11-23T15:16:13;6.60;99.90
7384;DHT22;3733;47.994;8.820;2022-11-23T15:18:42;6.50;99.90
7384;DHT22;3733;47.994;8.820;2022-11-23T15:23:44;6.50;99.90
7384;DHT22;3733;47.994;8.820;2022-11-23T15:26:22;6.50;99.90
7384;DHT22;3733;47.994;8.820;2022-11-23T15:28:49;6.40;99.90
7384;DHT22;3733;47.994;8.820;2022-11-23T15:33:51;6.40;99.90
7384;DHT22;3733;47.994;8.820;2022-11-23T15:36:23;6.40;99.90
7384;DHT22;3733;47.994;8.820;2022-11-23T15:38:50;6.30;99.90
7384;DHT22;3733;47.994;8.820;2022-11-23T15:41:16;6.30;99.90
7384;DHT22;3733;47.994;8.820;2022-11-23T15:43:59;6.30;99.90
7384;DHT22;3733;47.994;8.820;2022-11-23T15:46:35;6.30;99.90
7384;DHT22;3733;47.994;8.820;2022-11-23T15:49:03;6.30;99.90
7384;DHT22;3733;47.994;8.820;2022-11-23T15:51:38;6.30;99.90
7384;DHT22;3733;47.994;8.820;2022-11-23T15:54:05;6.20;99.90
7384;DHT22;3733;47.994;8.820;2022-11-23T15:56:37;6.20;99.90
7384;DHT22;3733;47.994;8.820;2022-11-23T15:59:38;6.20;99.90
7384;DHT22;3733;47.994;8.820;2022-11-23T16:02:09;6.20;99.90
7384;DHT22;3733;47.994;8.820;2022-11-23T16:04:39;6.20;99.90
7384;DHT22;3733;47.994;8.820;2022-11-23T16:07:22;6.20;99.90
7384;DHT22;3733;47.994;8.820;2022-11-23T16:12:46;6.20;99.90
7384;DHT22;3733;47.994;8.820;2022-11-23T16:20:58;6.20;99.90
7384;DHT22;3733;47.994;8.820;2022-11-23T16:23:49;6.10;99.90
7384;DHT22;3733;47.994;8.820;2022-11-23T16:26:13;6.20;99.90
7384;DHT22;3733;47.994;8.820;2022-11-23T16:28:50;6.10;99.90
7384;DHT22;3733;47.994;8.820;2022-11-23T16:31:50;6.10;99.90
7384;DHT22;3733;47.994;8.820;2022-11-23T16:34:17;6.10;99.90
7384;DHT22;3733;47.994;8.820;2022-11-23T16:36:43;6.10;99.90
7384;DHT22;3733;47.994;8.820;2022-11-23T16:39:08;6.10;99.90
7384;DHT22;3733;47.994;8.820;2022-11-23T16:41:34;6.10;99.90
7384;DHT22;3733;47.994;8.820;2022-11-23T16:44:00;6.00;99.90
7384;DHT22;3733;47.994;8.820;2022-11-23T16:46:26;6.00;99.90
7384;DHT22;3733;47.994;8.820;2022-11-23T16:48:52;6.00;99.90
7384;DHT22;3733;47.994;8.820;2022-11-23T16:51:20;5.90;99.90
7384;DHT22;3733;47.994;8.820;2022-11-23T16:53:46;5.90;99.90
7384;DHT22;3733;47.994;8.820;2022-11-23T16:56:19;5.90;99.90
7384;DHT22;3733;47.994;8.820;2022-11-23T16:58:46;5.80;99.90
7384;DHT22;3733;47.994;8.820;2022-11-23T17:01:23;5.80;99.90
7384;DHT22;3733;47.994;8.820;2022-11-23T17:03:49;5.80;99.90
7384;DHT22;3733;47.994;8.820;2022-11-23T17:06:16;5.70;99.90
7384;DHT22;3733;47.994;8.820;2022-11-23T17:08:43;5.70;99.90
7384;DHT22;3733;47.994;8.820;2022-11-23T17:13:44;5.70;99.90
7384;DHT22;3733;47.994;8.820;2022-11-23T17:16:18;5.60;99.90
7384;DHT22;3733;47.994;8.820;2022-11-23T17:18:44;5.60;99.90
7384;DHT22;3733;47.994;8.820;2022-11-23T17:21:11;5.60;99.90
7384;DHT22;3733;47.994;8.820;2022-11-23T17:23:38;5.60;99.90
7384;DHT22;3733;47.994;8.820;2022-11-23T17:26:30;5.60;99.90
7384;DHT22;3733;47.994;8.820;2022-11-23T17:29:00;5.60;99.90
7384;DHT22;3733;47.994;8.820;2022-11-23T17:31:26;5.60;99.90
7384;DHT22;3733;47.994;8.820;2022-11-23T17:33:51;5.60;99.90
7384;DHT22;3733;47.994;8.820;2022-11-23T17:36:17;5.60;99.90
7384;DHT22;3733;47.994;8.820;2022-11-23T17:38:43;5.60;99.90
7384;DHT22;3733;47.994;8.820;2022-11-23T17:41:12;5.60;99.90
7384;DHT22;3733;47.994;8.820;2022-11-23T17:43:38;5.50;99.90
7384;DHT22;3733;47.994;8.820;2022-11-23T17:46:03;5.50;99.90
7384;DHT22;3733;47.994;8.820;2022-11-23T17:48:29;5.50;99.90
7384;DHT22;3733;47.994;8.820;2022-11-23T17:50:55;5.50;99.90
7384;DHT22;3733;47.994;8.820;2022-11-23T17:53:20;5.50;99.90
7384;DHT22;3733;47.994;8.820;2022-11-23T17:55:46;5.50;99.90
7384;DHT22;3733;47.994;8.820;2022-11-23T17:58:12;5.50;99.90
7384;DHT22;3733;47.994;8.820;2022-11-23T18:00:43;5.50;99.90
7384;DHT22;3733;47.994;8.820;2022-11-23T18:03:12;5.40;99.90
7384;DHT22;3733;47.994;8.820;2022-11-23T18:05:38;5.40;99.90
7384;DHT22;3733;47.994;8.820;2022-11-23T18:08:03;5.40;99.90
7384;DHT22;3733;47.994;8.820;2022-11-23T18:10:29;5.40;99.90
7384;DHT22;3733;47.994;8.820;2022-11-23T18:12:57;5.40;99.90
7384;DHT22;3733;47.994;8.820;2022-11-23T18:15:23;5.40;99.90
7384;DHT22;3733;47.994;8.820;2022-11-23T18:17:48;5.40;99.90
7384;DHT22;3733;47.994;8.820;2022-11-23T18:20:14;5.40;99.90
7384;DHT22;3733;47.994;8.820;2022-11-23T18:22:40;5.40;99.90
7384;DHT22;3733;47.994;8.820;2022-11-23T18:25:06;5.40;99.90
7384;DHT22;3733;47.994;8.820;2022-11-23T18:27:31;5.30;99.90
7384;DHT22;3733;47.994;8.820;2022-11-23T18:30:00;5.30;99.90
7384;DHT22;3733;47.994;8.820;2022-11-23T18:32:26;5.30;99.90
7384;DHT22;3733;47.994;8.820;2022-11-23T18:34:51;5.30;99.90
7384;DHT22;3733;47.994;8.820;2022-11-23T18:37:17;5.30;99.90
7384;DHT22;3733;47.994;8.820;2022-11-23T18:39:42;5.30;99.90
7384;DHT22;3733;47.994;8.820;2022-11-23T18:42:11;5.30;99.90
7384;DHT22;3733;47.994;8.820;2022-11-23T18:44:37;5.30;99.90
7384;DHT22;3733;47.994;8.820;2022-11-23T18:47:02;5.30;99.90
7384;DHT22;3733;47.994;8.820;2022-11-23T18:49:28;5.30;99.90
7384;DHT22;3733;47.994;8.820;2022-11-23T18:51:53;5.40;99.90
7384;DHT22;3733;47.994;8.820;2022-11-23T18:54:19;5.30;99.90
7384;DHT22;3733;47.994;8.820;2022-11-23T18:56:45;5.30;99.90
7384;DHT22;3733;47.994;8.820;2022-11-23T18:59:10;5.30;99.90
7384;DHT22;3733;47.994;8.820;2022-11-23T19:01:36;5.30;99.90
7384;DHT22;3733;47.994;8.820;2022-11-23T19:04:02;5.30;99.90
7384;DHT22;3733;47.994;8.820;2022-11-23T19:06:28;5.30;99.90
7384;DHT22;3733;47.994;8.820;2022-11-23T19:08:54;5.30;99.90
7384;DHT22;3733;47.994;8.820;2022-11-23T19:11:23;5.30;99.90